Time;durP1;ratioP1;P1;durP2;ratioP2;P2;SDS_P1;SDS_P2;PMS_P1;PMS_P2;Temp;Humidity;BMP_temperature;BMP_pressure;BME280_temperature;BME280_humidity;BME280_pressure;Samples;Min_cycle;Max_cycle;Signal;HPM_P1;HPM_P2
2022/06/05 00:02:18;;;;;;;;;14.33;14.33;;;;;20.91;68.19;100980.13;5036127;28;47650;-76
2022/06/05 00:04:52;;;;;;;;;15.00;15.00;;;;;20.86;67.97;100955.59;5037523;28;45226;-75
2022/06/05 00:07:31;;;;;;;;;11.00;11.00;;;;;20.62;67.83;100921.91;5036333;28;45317;-76
2022/06/05 00:09:56;;;;;;;;;15.00;11.67;;;;;20.83;68.03;100961.41;5037052;28;45398;-75
2022/06/05 00:13:05;;;;;;;;;13.67;12.67;;;;;20.89;68.10;100975.97;5037576;28;46599;-76
2022/06/05 00:15:31;;;;;;;;;14.33;14.33;;;;;20.89;67.88;100970.56;5026378;28;45527;-76
2022/06/05 00:17:57;;;;;;;;;11.00;11.00;;;;;20.86;67.45;100955.59;5037056;28;45766;-74
2022/06/05 00:20:23;;;;;;;;;12.00;11.33;;;;;20.82;67.55;100942.69;5046627;28;45570;-76
2022/06/05 00:22:48;;;;;;;;;6.67;6.67;;;;;20.87;67.34;100964.53;5033009;28;47127;-73
2022/06/05 00:25:14;;;;;;;;;11.33;11.33;;;;;20.91;67.60;100980.13;5033003;28;45353;-74
2022/06/05 00:27:48;;;;;;;;;15.67;13.67;;;;;20.68;67.51;100933.75;5016579;28;45586;-74
2022/06/05 00:30:24;;;;;;;;;14.00;14.00;;;;;20.96;67.44;100960.59;5021773;28;45185;-74
2022/06/05 00:32:56;;;;;;;;;16.67;13.33;;;;;20.99;67.72;100962.03;5037388;28;46980;-76
2022/06/05 00:35:21;;;;;;;;;13.33;12.00;;;;;20.63;67.74;100910.06;5037153;28;45526;-75
2022/06/05 00:38:03;;;;;;;;;12.67;11.67;;;;;20.72;67.90;100910.69;5036792;28;45460;-76
2022/06/05 00:40:51;;;;;;;;;13.67;13.67;;;;;20.99;67.63;100949.34;5032883;28;45478;-75
2022/06/05 00:43:20;;;;;;;;;11.67;11.67;;;;;20.92;67.41;100946.66;5035514;28;46621;-75
2022/06/05 00:45:46;;;;;;;;;11.00;11.00;;;;;21.01;67.73;100951.84;5020410;28;45311;-75
2022/06/05 00:48:12;;;;;;;;;13.00;13.00;;;;;21.01;67.51;100946.44;5036804;28;45463;-74
2022/06/05 00:50:40;;;;;;;;;11.67;10.67;;;;;20.96;67.69;100930.84;5039973;28;45304;-75
2022/06/05 00:53:08;;;;;;;;;11.67;11.67;;;;;20.58;68.01;100869.31;5038588;28;47559;-76
2022/06/05 00:55:47;;;;;;;;;12.33;12.33;;;;;20.85;67.85;100899.88;5038663;28;45267;-75
2022/06/05 00:58:13;;;;;;;;;37.67;34.33;;;;;20.79;68.03;100892.59;5039672;28;45562;-73
2022/06/05 01:00:44;;;;;;;;;22.00;20.67;;;;;20.93;68.00;100923.16;5040714;28;45420;-73
2022/06/05 01:03:12;;;;;;;;;15.33;13.33;;;;;20.69;67.77;100889.47;5040169;28;45786;-77
2022/06/05 01:05:38;;;;;;;;;12.67;12.67;;;;;20.51;68.01;100860.38;5039224;28;45468;-75
2022/06/05 01:08:05;;;;;;;;;17.00;15.33;;;;;21.01;67.67;100941.03;5030515;28;45415;-76
2022/06/05 01:10:33;;;;;;;;;10.33;10.00;;;;;21.00;67.64;100939.38;5038216;28;45495;-74
2022/06/05 01:13:06;;;;;;;;;13.00;13.00;;;;;20.70;67.67;100874.94;5025563;28;46648;-75
2022/06/05 01:15:52;;;;;;;;;19.00;15.33;;;;;21.01;67.98;100932.94;5037664;28;45411;-75
2022/06/05 01:18:33;;;;;;;;;16.00;13.00;;;;;20.81;67.79;100886.97;5038713;28;45507;-74
2022/06/05 01:21:05;;;;;;;;;9.33;9.33;;;;;21.04;67.76;100903.63;5020574;28;45399;-75
2022/06/05 01:23:43;;;;;;;;;10.00;9.00;;;;;21.04;67.56;100894.69;5037247;28;47901;-75
2022/06/05 01:26:21;;;;;;;;;13.00;12.33;;;;;20.80;67.76;100856.41;5039709;28;45402;-75
2022/06/05 01:29:04;;;;;;;;;13.67;12.33;;;;;20.67;67.55;100826.72;5051015;28;45377;-77
2022/06/05 01:31:39;;;;;;;;;17.00;14.67;;;;;20.84;67.73;100851.47;5019985;28;45475;-75
2022/06/05 01:34:13;;;;;;;;;14.00;14.00;;;;;21.03;67.72;100871.41;5019637;28;46436;-73
2022/06/05 01:36:45;;;;;;;;;15.33;15.00;;;;;21.02;68.20;100867.84;5034849;28;45755;-74
2022/06/05 01:39:15;;;;;;;;;14.67;13.67;;;;;20.81;68.37;100838.34;5028487;28;45453;-75
2022/06/05 01:41:45;;;;;;;;;13.00;13.00;;;;;20.91;68.31;100845.00;5029541;28;45420;-75
2022/06/05 01:44:17;;;;;;;;;14.33;13.33;;;;;21.02;68.15;100861.59;5020770;28;45466;-75
2022/06/05 01:46:43;;;;;;;;;10.67;10.00;;;;;20.65;68.46;100796.38;5016133;28;45516;-76
2022/06/05 01:49:31;;;;;;;;;13.00;13.00;;;;;21.02;68.27;100840.81;5019683;28;45530;-74
2022/06/05 01:52:26;;;;;;;;;12.67;12.33;;;;;20.62;68.65;100773.31;5019772;28;45618;-75
2022/06/05 01:55:07;;;;;;;;;16.00;13.67;;;;;21.01;68.57;100838.31;5018250;28;48405;-74
2022/06/05 01:57:35;;;;;;;;;16.00;13.67;;;;;20.92;68.52;100813.41;5025288;28;45574;-75
2022/06/05 02:00:07;;;;;;;;;12.33;12.33;;;;;20.98;68.74;100823.34;5038385;28;45631;-75
2022/06/05 02:02:39;;;;;;;;;20.00;17.33;;;;;20.45;68.54;100742.38;5037856;28;45615;-75
2022/06/05 02:05:09;;;;;;;;;21.67;18.67;;;;;20.44;68.71;100738.00;5023992;28;46105;-76
2022/06/05 02:07:45;;;;;;;;;14.33;13.67;;;;;20.23;68.50;100698.53;5037893;28;45254;-75
2022/06/05 02:10:18;;;;;;;;;14.33;14.33;;;;;20.97;68.48;100824.41;5049264;28;45448;-76
2022/06/05 02:12:44;;;;;;;;;16.67;14.33;;;;;20.98;68.55;100811.72;5055810;28;45260;-75
2022/06/05 02:15:10;;;;;;;;;14.33;14.33;;;;;20.87;68.90;100805.91;5039453;28;46394;-76
2022/06/05 02:17:37;;;;;;;;;18.33;17.33;;;;;20.83;69.05;100798.44;5038346;28;45455;-76
2022/06/05 02:20:07;;;;;;;;;19.00;16.00;;;;;20.53;69.05;100754.81;5037851;28;45402;-76
2022/06/05 02:22:52;;;;;;;;;19.67;19.33;;;;;20.47;69.17;100739.47;5038268;28;45613;-78
2022/06/05 02:25:22;;;;;;;;;17.67;17.33;;;;;20.65;69.15;100781.00;5038561;28;45928;-75
2022/06/05 02:27:47;;;;;;;;;22.00;22.00;;;;;20.65;69.18;100781.00;5030149;28;45352;-77
2022/06/05 02:30:15;;;;;;;;;20.00;19.67;;;;;20.71;69.31;100779.31;5028705;28;45543;-75
2022/06/05 02:33:05;;;;;;;;;18.67;18.67;;;;;20.59;69.08;100770.19;5039249;28;45470;-74
2022/06/05 02:36:00;;;;;;;;;20.67;19.67;;;;;20.79;69.44;100798.00;5033267;28;47711;-76
2022/06/05 02:38:35;;;;;;;;;20.67;20.67;;;;;18.85;69.08;100472.72;5018677;28;45454;-75
2022/06/05 02:41:08;;;;;;;;;24.00;19.00;;;;;20.62;69.56;100762.53;5018786;28;45434;-74
2022/06/05 02:46:51;;;;;;;;;19.67;19.67;;;;;20.61;69.23;100762.69;5020228;28;45217;-76
2022/06/05 02:49:30;;;;;;;;;19.33;17.33;;;;;20.66;68.95;100762.94;5019122;28;45179;-74
2022/06/05 02:52:01;;;;;;;;;19.67;19.67;;;;;20.35;69.03;100721.16;5032032;28;45500;-75
2022/06/05 02:54:27;;;;;;;;;19.67;19.67;;;;;20.74;69.15;100772.66;5033667;28;45372;-77
2022/06/05 02:56:55;;;;;;;;;19.67;18.67;;;;;20.63;69.09;100755.25;5016479;28;47132;-75
2022/06/05 02:59:21;;;;;;;;;16.00;16.00;;;;;20.35;69.13;100707.66;5036605;28;45655;-75
2022/06/05 03:04:36;;;;;;;;;24.00;22.00;;;;;20.49;68.98;100738.22;5023732;28;45395;-75
2022/06/05 03:07:01;;;;;;;;;17.67;17.67;;;;;20.25;69.02;100704.53;5032269;28;48040;-76
2022/06/05 03:09:27;;;;;;;;;20.33;16.00;;;;;20.14;68.77;100691.66;5025737;28;45210;-74
2022/06/05 03:11:52;;;;;;;;;21.00;18.67;;;;;20.69;68.66;100773.31;5034559;28;45424;-75
2022/06/05 03:14:18;;;;;;;;;14.00;13.00;;;;;19.94;68.55;100658.44;5027347;28;45442;-74
2022/06/05 03:16:43;;;;;;;;;14.00;14.00;;;;;20.68;68.52;100789.72;5037862;28;48042;-73
2022/06/05 03:19:10;;;;;;;;;13.67;10.67;;;;;20.68;68.32;100797.84;5034642;28;45386;-74
2022/06/05 03:21:37;;;;;;;;;12.00;12.00;;;;;20.56;68.00;100781.41;5030176;28;45311;-75
2022/06/05 03:24:04;;;;;;;;;11.00;10.00;;;;;20.58;68.05;100792.84;5028754;28;45523;-74
2022/06/05 03:26:30;;;;;;;;;13.00;13.00;;;;;20.52;68.24;100796.38;5026239;28;45710;-74
2022/06/05 03:28:55;;;;;;;;;14.67;13.00;;;;;20.02;68.09;100713.06;5047419;28;45229;-75
2022/06/05 03:31:20;;;;;;;;;13.67;12.00;;;;;20.10;68.16;100727.38;5032692;28;45481;-73
2022/06/05 03:33:46;;;;;;;;;14.00;12.67;;;;;20.42;68.33;100795.94;5024597;28;45469;-76
2022/06/05 03:36:14;;;;;;;;;14.00;13.33;;;;;20.29;68.09;100758.94;5036550;28;46363;-74
2022/06/05 03:38:41;;;;;;;;;12.67;12.67;;;;;20.20;68.18;100758.31;5039478;28;45814;-73
2022/06/05 03:41:08;;;;;;;;;15.00;13.33;;;;;20.40;68.09;100798.81;5036975;28;45483;-75
2022/06/05 03:43:34;;;;;;;;;11.00;11.00;;;;;19.89;68.02;100725.69;5018121;28;45460;-74
2022/06/05 03:46:06;;;;;;;;;13.00;13.00;;;;;19.93;68.28;100745.84;5017132;28;45906;-77
2022/06/05 03:48:32;;;;;;;;;16.33;13.33;;;;;20.33;68.32;100820.44;5025023;28;45474;-74
2022/06/05 03:50:57;;;;;;;;;13.67;12.33;;;;;20.23;68.47;100814.63;5020262;28;45266;-73
2022/06/05 03:53:23;;;;;;;;;18.00;15.00;;;;;20.11;68.25;100786.56;5038596;28;45425;-75
2022/06/05 03:55:48;;;;;;;;;14.33;14.33;;;;;20.08;68.35;100783.44;5034829;28;46134;-75
2022/06/05 03:58:13;;;;;;;;;12.00;12.00;;;;;20.33;68.05;100830.41;5035579;28;46139;-75
2022/06/05 04:00:41;;;;;;;;;18.33;15.33;;;;;20.33;67.96;100831.22;5037818;28;45409;-75
2022/06/05 04:03:07;;;;;;;;;16.00;16.00;;;;;20.30;68.42;100826.25;5018325;28;45412;-74
2022/06/05 04:05:32;;;;;;;;;13.67;13.67;;;;;20.34;68.29;100832.06;5026638;28;46524;-76
2022/06/05 04:07:58;;;;;;;;;16.33;12.00;;;;;20.23;68.29;100819.19;5026010;28;45543;-74
2022/06/05 04:10:23;;;;;;;;;15.67;13.33;;;;;20.12;68.21;100806.28;5035490;28;45482;-76
2022/06/05 04:12:49;;;;;;;;;13.00;13.00;;;;;20.05;68.24;100806.28;5030549;28;45614;-74
2022/06/05 04:15:15;;;;;;;;;17.33;15.67;;;;;20.33;68.11;100841.19;5031574;28;46243;-74
2022/06/05 04:17:41;;;;;;;;;13.33;13.33;;;;;19.89;68.09;100772.41;5028819;28;45632;-73
2022/06/05 04:20:07;;;;;;;;;16.00;15.67;;;;;20.00;68.02;100801.47;5035093;28;45372;-74
2022/06/05 04:22:37;;;;;;;;;13.00;11.67;;;;;20.41;68.35;100856.41;5033016;28;45301;-75
2022/06/05 04:25:04;;;;;;;;;11.67;10.67;;;;;20.32;68.16;100836.84;5016896;28;45711;-74
2022/06/05 04:27:30;;;;;;;;;11.67;11.00;;;;;20.47;68.29;100863.69;5028941;28;45603;-75
2022/06/05 04:29:58;;;;;;;;;14.00;13.67;;;;;20.40;68.14;100854.69;5020922;28;45496;-75
2022/06/05 04:32:24;;;;;;;;;12.67;11.67;;;;;20.00;68.11;100795.25;5040476;28;45326;-76
2022/06/05 04:34:52;;;;;;;;;13.67;11.67;;;;;20.55;68.09;100863.47;5016446;28;45464;-74
2022/06/05 04:37:18;;;;;;;;;19.00;16.00;;;;;20.50;68.27;100850.59;5018462;28;45539;-75
2022/06/05 04:39:43;;;;;;;;;13.00;12.00;;;;;20.61;67.85;100878.84;5017147;28;45348;-75
2022/06/05 04:42:09;;;;;;;;;18.00;17.00;;;;;20.61;68.07;100879.69;5033508;28;45525;-74
2022/06/05 04:44:35;;;;;;;;;14.33;11.33;;;;;20.41;67.85;100845.59;5035708;28;45461;-76
2022/06/05 04:47:01;;;;;;;;;11.67;11.67;;;;;20.59;67.71;100872.84;5019595;28;45533;-74
2022/06/05 04:49:26;;;;;;;;;11.67;11.33;;;;;20.68;67.79;100887.81;5031803;28;46166;-76
2022/06/05 04:51:52;;;;;;;;;14.00;11.33;;;;;20.63;67.55;100880.34;5034175;28;45478;-73
2022/06/05 04:54:17;;;;;;;;;12.67;12.67;;;;;20.84;66.86;100908.19;5034127;28;46199;-75
2022/06/05 04:56:43;;;;;;;;;17.67;17.00;;;;;20.50;67.12;100853.31;5027794;28;45522;-73
2022/06/05 04:59:11;;;;;;;;;9.00;9.00;;;;;20.21;66.80;100794.22;5017962;28;45349;-75
2022/06/05 05:01:39;;;;;;;;;13.67;13.67;;;;;20.91;66.43;100915.25;5035685;28;46773;-76
2022/06/05 05:04:08;;;;;;;;;14.33;12.33;;;;;20.75;66.39;100879.72;5026664;28;45842;-76
2022/06/05 05:06:34;;;;;;;;;14.33;13.67;;;;;20.26;66.39;100791.78;5016140;28;45309;-76
2022/06/05 05:09:01;;;;;;;;;15.67;15.67;;;;;20.94;66.75;100904.03;5021499;28;45505;-74
2022/06/05 05:11:27;;;;;;;;;13.67;13.67;;;;;20.88;66.43;100899.47;5025363;28;45495;-74
2022/06/05 05:13:54;;;;;;;;;13.00;13.00;;;;;20.91;66.45;100888.22;5016316;28;46479;-74
2022/06/05 05:16:20;;;;;;;;;13.00;11.00;;;;;20.77;66.08;100870.34;5020967;28;45313;-75
2022/06/05 05:18:46;;;;;;;;;13.67;12.00;;;;;21.08;66.33;100906.75;5025753;28;45534;-73
2022/06/05 05:21:17;;;;;;;;;10.33;9.00;;;;;21.13;66.40;100907.78;5022585;28;45399;-74
2022/06/05 05:23:43;;;;;;;;;11.00;9.67;;;;;20.93;65.54;100880.75;5027651;28;46618;-73
2022/06/05 05:26:11;;;;;;;;;11.00;11.00;;;;;20.90;65.64;100858.72;5016585;28;45293;-75
2022/06/05 05:28:37;;;;;;;;;9.00;8.33;;;;;21.03;65.35;100866.00;5027053;28;45538;-75
2022/06/05 05:31:08;;;;;;;;;14.00;11.67;;;;;21.19;65.54;100884.47;5030926;28;45544;-74
2022/06/05 05:33:33;;;;;;;;;12.67;11.67;;;;;21.16;65.47;100884.88;5019229;28;46028;-75
2022/06/05 05:35:58;;;;;;;;;14.00;14.00;;;;;21.36;65.16;100901.13;5022950;28;45499;-75
2022/06/05 05:38:24;;;;;;;;;15.67;15.67;;;;;21.15;64.83;100881.34;5022539;28;45905;-76
2022/06/05 05:43:33;;;;;;;;;21.67;18.67;;;;;20.92;64.70;100816.09;5029769;28;45858;-75
2022/06/05 05:45:58;;;;;;;;;15.67;14.67;;;;;21.61;64.74;100925.59;5026657;28;45468;-74
2022/06/05 05:48:24;;;;;;;;;13.33;13.33;;;;;21.62;64.28;100929.97;5037569;28;45440;-73
2022/06/05 05:50:49;;;;;;;;;11.00;11.00;;;;;21.54;64.11;100912.94;5030143;28;45339;-74
2022/06/05 05:53:14;;;;;;;;;11.67;11.33;;;;;21.61;63.91;100912.91;5024520;28;45572;-75
2022/06/05 05:55:40;;;;;;;;;12.67;12.67;;;;;21.66;64.38;100915.00;5044211;28;46092;-75
2022/06/05 05:58:05;;;;;;;;;13.33;11.33;;;;;21.70;64.19;100924.34;5037826;28;45499;-75
2022/06/05 06:00:34;;;;;;;;;13.67;12.67;;;;;21.27;63.94;100822.09;5037512;28;45543;-74
2022/06/05 06:02:59;;;;;;;;;12.33;12.33;;;;;21.61;63.72;100860.66;5037408;28;45820;-74
2022/06/05 06:05:25;;;;;;;;;12.33;11.67;;;;;21.70;63.26;100875.66;5039047;28;45469;-74
2022/06/05 06:07:51;;;;;;;;;13.67;11.67;;;;;21.47;63.78;100828.28;5037878;28;45314;-74
2022/06/05 06:10:16;;;;;;;;;14.00;13.00;;;;;21.97;63.22;100900.72;5038071;28;45464;-74
2022/06/05 06:12:42;;;;;;;;;13.33;11.33;;;;;21.93;63.57;100885.97;5035275;28;46920;-72
2022/06/05 06:15:08;;;;;;;;;16.00;13.67;;;;;21.77;63.38;100843.97;5021094;28;45530;-74
2022/06/05 06:17:34;;;;;;;;;16.00;14.00;;;;;21.46;62.86;100788.75;5030861;28;45320;-74
2022/06/05 06:20:00;;;;;;;;;14.33;13.33;;;;;22.12;62.86;100885.91;5036819;28;45503;-74
2022/06/05 06:22:25;;;;;;;;;11.67;10.67;;;;;22.34;63.03;100889.09;5037278;28;45710;-76
2022/06/05 06:24:52;;;;;;;;;11.33;11.33;;;;;22.45;62.67;100890.31;5035112;28;45501;-75
2022/06/05 06:27:17;;;;;;;;;11.00;9.67;;;;;22.42;62.07;100863.63;5031199;28;45522;-74
2022/06/05 06:29:43;;;;;;;;;11.67;11.67;;;;;22.60;61.30;100882.66;5038750;28;45465;-74
2022/06/05 06:32:08;;;;;;;;;15.00;12.00;;;;;22.60;62.11;100879.97;5031119;28;45714;-72
2022/06/05 06:34:34;;;;;;;;;12.67;12.67;;;;;22.61;62.39;100859.09;5026127;28;45511;-77
2022/06/05 06:36:59;;;;;;;;;9.67;9.67;;;;;22.51;61.37;100832.50;5021061;28;45463;-75
2022/06/05 06:39:24;;;;;;;;;10.00;10.00;;;;;22.47;61.77;100820.47;5021623;28;45451;-76
2022/06/05 06:41:50;;;;;;;;;14.33;13.00;;;;;22.81;60.91;100873.34;5021423;28;46413;-73
2022/06/05 06:44:17;;;;;;;;;13.00;13.00;;;;;22.93;61.63;100871.59;5018766;28;45529;-74
2022/06/05 06:46:42;;;;;;;;;10.67;10.67;;;;;22.97;61.33;100861.13;5019544;28;45395;-73
2022/06/05 06:49:09;;;;;;;;;10.33;10.33;;;;;23.22;60.74;100870.06;5026874;28;45276;-75
2022/06/05 06:51:34;;;;;;;;;10.67;10.67;;;;;23.44;60.38;100870.50;5027239;28;47655;-76
2022/06/05 06:54:00;;;;;;;;;11.00;8.33;;;;;23.05;58.83;100768.66;5017789;28;46166;-76
2022/06/05 06:56:29;;;;;;;;;10.33;9.67;;;;;23.75;59.03;100869.53;5026669;28;45546;-75
2022/06/05 06:58:57;;;;;;;;;10.33;10.33;;;;;23.32;58.85;100778.16;5040170;28;45578;-76
2022/06/05 07:01:22;;;;;;;;;13.00;10.67;;;;;23.37;58.75;100772.88;5032005;28;45741;-76
2022/06/05 07:03:47;;;;;;;;;9.00;9.00;;;;;23.84;58.84;100805.72;5022928;28;45269;-77
2022/06/05 07:06:14;;;;;;;;;10.67;10.67;;;;;24.40;57.86;100831.66;5028946;28;45556;-76
2022/06/05 07:08:42;;;;;;;;;8.00;7.67;;;;;24.46;56.55;100761.97;5037112;28;45853;-75
2022/06/05 07:11:09;;;;;;;;;8.00;8.00;;;;;25.30;55.02;100808.78;5033124;28;47458;-76
2022/06/05 07:13:35;;;;;;;;;12.00;10.67;;;;;26.08;54.04;100851.78;5023977;28;45486;-75
2022/06/05 07:16:00;;;;;;;;;12.67;10.00;;;;;26.35;52.75;100808.41;5031573;28;45440;-76
2022/06/05 07:18:26;;;;;;;;;13.33;9.67;;;;;27.01;51.50;100828.59;5021953;28;45416;-75
2022/06/05 07:20:51;;;;;;;;;8.33;7.33;;;;;27.57;50.02;100838.38;5024313;28;45772;-76
2022/06/05 07:23:17;;;;;;;;;8.00;7.00;;;;;27.92;49.21;100800.81;5026920;28;45284;-75
2022/06/05 07:25:48;;;;;;;;;8.00;6.67;;;;;28.64;46.75;100819.56;5026341;28;45407;-77
2022/06/05 07:28:14;;;;;;;;;6.33;6.33;;;;;28.96;46.97;100838.69;5027858;28;45316;-75
2022/06/05 07:30:39;;;;;;;;;7.67;7.00;;;;;28.84;46.62;100786.06;5016778;28;46155;-77
2022/06/05 07:33:05;;;;;;;;;6.67;6.67;;;;;29.60;45.82;100811.94;5018186;28;45532;-73
2022/06/05 07:35:31;;;;;;;;;7.00;5.33;;;;;29.77;43.92;100718.53;5017932;28;45267;-78
2022/06/05 07:37:57;;;;;;;;;6.00;6.00;;;;;30.96;42.06;100812.38;5035268;28;45162;-76
2022/06/05 07:40:23;;;;;;;;;5.33;5.33;;;;;31.49;40.84;100815.53;5023233;28;46228;-75
2022/06/05 07:42:49;;;;;;;;;7.67;6.67;;;;;31.67;40.78;100838.84;5034397;28;45254;-75
2022/06/05 07:45:15;;;;;;;;;4.33;4.00;;;;;31.44;40.81;100840.31;5035376;28;45420;-77
2022/06/05 07:47:42;;;;;;;;;4.67;4.67;;;;;30.74;40.62;100732.28;5028553;28;45414;-77
2022/06/05 07:50:08;;;;;;;;;5.67;5.67;;;;;31.34;40.91;100821.09;5027368;28;46639;-76
2022/06/05 07:55:18;;;;;;;;;5.00;5.00;;;;;31.09;39.77;100729.41;5017971;28;45247;-78
2022/06/05 07:57:43;;;;;;;;;4.33;4.33;;;;;31.20;39.99;100765.09;5038208;28;45571;-78
2022/06/05 08:00:11;;;;;;;;;6.67;5.67;;;;;31.27;39.43;100790.38;5051678;28;45257;-77
2022/06/05 08:02:38;;;;;;;;;5.67;5.67;;;;;31.34;39.54;100813.69;5039239;28;45507;-81
2022/06/05 08:05:16;;;;;;;;;7.67;5.00;;;;;31.43;39.08;100824.91;5033624;28;45647;-76
2022/06/05 08:07:41;;;;;;;;;6.00;6.00;;;;;31.03;39.04;100770.88;5036385;28;45670;-76
2022/06/05 08:10:07;;;;;;;;;4.67;4.00;;;;;31.32;39.72;100840.59;5029127;28;46376;-76
2022/06/05 08:12:34;;;;;;;;;8.33;6.00;;;;;31.18;39.91;100856.84;5031214;28;45573;-76
2022/06/05 08:15:12;;;;;;;;;6.33;6.33;;;;;30.85;40.08;100851.94;5032575;28;45466;-77
2022/06/05 08:17:38;;;;;;;;;7.67;7.67;;;;;30.17;40.53;100801.97;5028796;28;45522;-76
2022/06/05 08:20:06;;;;;;;;;4.67;4.67;;;;;30.28;41.07;100859.31;5024668;28;47018;-78
2022/06/05 08:22:31;;;;;;;;;6.00;6.00;;;;;29.92;41.54;100861.13;5034032;28;45463;-74
2022/06/05 08:24:57;;;;;;;;;4.00;4.00;;;;;29.61;42.25;100859.34;5034209;28;45364;-75
2022/06/05 08:27:26;;;;;;;;;6.33;4.67;;;;;28.70;43.07;100772.00;5040311;28;45592;-75
2022/06/05 08:29:57;;;;;;;;;3.00;3.00;;;;;28.25;43.20;100739.63;5017854;28;46385;-75
2022/06/05 08:32:25;;;;;;;;;8.00;7.00;;;;;28.42;43.72;100827.84;5026884;28;45422;-77
2022/06/05 08:34:51;;;;;;;;;5.00;5.00;;;;;28.34;44.32;100874.81;5024140;28;45742;-73
2022/06/05 08:43:22;;;;;;;;;5.67;5.67;;;;;27.44;46.31;100866.06;5028267;28;45659;-82
2022/06/05 08:46:01;;;;;;;;;3.67;3.67;;;;;27.07;46.62;100846.72;5023607;28;45406;-79
2022/06/05 08:48:38;;;;;;;;;5.33;5.00;;;;;27.07;47.36;100876.72;5018157;28;45703;-76
2022/06/05 08:51:20;;;;;;;;;5.00;5.00;;;;;26.62;47.42;100852.22;5035323;28;46185;-76
2022/06/05 08:54:12;;;;;;;;;7.00;5.00;;;;;26.50;48.09;100887.75;5028874;28;45515;-76
2022/06/05 08:56:42;;;;;;;;;4.00;2.33;;;;;25.72;48.39;100799.34;5019037;28;45317;-75
2022/06/05 08:59:17;;;;;;;;;4.33;3.33;;;;;25.42;49.00;100793.25;5035992;28;45528;-76
2022/06/05 09:02:19;;;;;;;;;3.00;3.00;;;;;25.92;49.43;100886.06;5038823;28;45838;-77
2022/06/05 09:04:49;;;;;;;;;6.33;6.33;;;;;24.24;49.20;100651.13;5020027;28;45439;-75
2022/06/05 09:07:20;;;;;;;;;7.33;6.00;;;;;25.34;49.77;100809.97;5034440;28;45415;-76
2022/06/05 09:10:15;;;;;;;;;5.00;5.00;;;;;25.66;49.90;100883.88;5039691;28;45225;-74
2022/06/05 09:12:59;;;;;;;;;3.33;3.33;;;;;25.27;50.33;100828.31;5026042;28;46536;-78
2022/06/05 09:15:30;;;;;;;;;5.00;5.00;;;;;25.61;50.73;100892.75;5033666;28;45626;-76
2022/06/05 09:17:58;;;;;;;;;7.00;7.00;;;;;25.55;50.72;100912.78;5041267;28;45462;-75
2022/06/05 09:20:41;;;;;;;;;6.33;6.33;;;;;25.13;51.18;100855.75;5028897;28;45325;-76
2022/06/05 09:23:19;;;;;;;;;4.67;4.67;;;;;24.92;51.39;100847.34;5020180;28;46726;-77
2022/06/05 09:26:02;;;;;;;;;6.67;6.33;;;;;25.31;51.61;100939.19;5028255;28;45230;-76
2022/06/05 09:28:35;;;;;;;;;6.00;6.00;;;;;25.01;52.10;100879.41;5032335;28;45300;-75
2022/06/05 09:31:12;;;;;;;;;11.00;8.67;;;;;25.18;52.02;100931.22;5040345;28;45517;-76
2022/06/05 09:33:40;;;;;;;;;9.00;5.00;;;;;24.36;52.45;100816.88;5033820;28;47929;-75
2022/06/05 09:36:13;;;;;;;;;7.67;5.33;;;;;25.09;52.47;100947.09;5019490;28;45641;-76
2022/06/05 09:38:53;;;;;;;;;11.33;11.33;;;;;24.90;52.99;100929.16;5035095;28;45449;-76
2022/06/05 09:41:37;;;;;;;;;8.00;8.00;;;;;25.03;52.88;100950.75;5029374;28;45491;-75
2022/06/05 09:44:38;;;;;;;;;5.00;5.00;;;;;24.93;52.98;100953.19;5031827;28;45918;-76
2022/06/05 09:47:35;;;;;;;;;9.00;8.00;;;;;24.88;53.53;100945.72;5003373;28;45524;-75
2022/06/05 09:50:11;;;;;;;;;9.33;8.33;;;;;24.70;53.44;100920.50;5020466;28;45303;-76
2022/06/05 09:52:37;;;;;;;;;4.67;4.67;;;;;24.31;53.45;100862.94;5018957;28;45508;-77
2022/06/05 09:55:08;;;;;;;;;6.00;6.00;;;;;24.78;54.24;100956.31;5020242;28;45754;-77
2022/06/05 10:00:40;;;;;;;;;8.00;7.67;;;;;23.92;54.65;100831.72;5030992;28;45205;-75
2022/06/05 10:03:15;;;;;;;;;8.67;8.67;;;;;24.55;54.53;100948.94;5032862;28;45217;-75
2022/06/05 10:05:46;;;;;;;;;9.00;9.00;;;;;24.31;55.16;100928.16;5019415;28;47941;-79
2022/06/05 10:08:24;;;;;;;;;6.33;6.33;;;;;24.10;55.16;100915.88;5026861;28;45369;-77
2022/06/05 10:10:56;;;;;;;;;8.00;7.00;;;;;24.48;55.05;100961.81;5029428;28;45518;-77
2022/06/05 10:13:21;;;;;;;;;8.67;8.00;;;;;24.47;54.83;100971.00;5021853;28;45336;-78
2022/06/05 10:16:00;;;;;;;;;12.00;12.00;;;;;24.00;54.62;100903.88;5039291;28;45502;-76
2022/06/05 10:18:39;;;;;;;;;9.00;9.00;;;;;24.60;53.82;100985.47;5025185;28;45275;-76
2022/06/05 10:21:11;;;;;;;;;7.33;5.00;;;;;24.50;53.74;100965.13;5034208;28;45428;-76
2022/06/05 10:24:24;;;;;;;;;9.00;9.00;;;;;24.49;53.84;100963.47;5020957;28;45515;-76
2022/06/05 10:26:56;;;;;;;;;7.33;7.33;;;;;24.22;53.69;100902.31;5039329;28;45435;-78
2022/06/05 10:30:00;;;;;;;;;12.67;11.67;;;;;24.78;53.21;100975.38;5036473;28;45493;-74
2022/06/05 10:32:41;;;;;;;;;51.33;40.67;;;;;24.86;52.63;100982.38;5005237;28;45463;-75
2022/06/05 10:35:10;;;;;;;;;8.67;8.67;;;;;24.88;52.90;100982.97;5028722;28;45286;-75
2022/06/05 10:37:48;;;;;;;;;10.33;9.00;;;;;24.81;52.96;100971.34;5015061;28;46343;-75
2022/06/05 10:40:19;;;;;;;;;13.67;13.00;;;;;24.67;52.39;100940.00;5006900;28;45376;-77
2022/06/05 10:43:03;;;;;;;;;12.00;10.67;;;;;24.89;52.83;100981.91;5003374;28;45453;-75
2022/06/05 10:46:02;;;;;;;;;10.33;10.33;;;;;24.62;52.75;100934.41;5017745;28;45589;-74
2022/06/05 10:48:46;;;;;;;;;13.33;12.00;;;;;24.89;53.09;100984.63;5017837;28;46509;-77
2022/06/05 10:51:32;;;;;;;;;12.00;12.00;;;;;24.93;52.40;100985.81;5010834;28;45468;-77
2022/06/05 10:54:23;;;;;;;;;9.67;9.67;;;;;24.90;52.29;101002.59;5018370;28;45383;-75
2022/06/05 10:57:21;;;;;;;;;12.67;12.67;;;;;24.92;52.26;100989.59;5017680;28;45325;-78
2022/06/05 11:00:20;;;;;;;;;13.00;12.33;;;;;24.91;51.83;100992.56;5007208;28;45578;-77
2022/06/05 11:03:11;;;;;;;;;12.67;12.67;;;;;24.96;52.13;100998.94;5018901;28;45383;-75
2022/06/05 11:06:03;;;;;;;;;15.67;14.00;;;;;24.95;51.95;100988.31;5000692;28;45572;-77
2022/06/05 11:08:50;;;;;;;;;13.67;13.67;;;;;25.01;51.77;100993.66;5018881;28;45291;-75
2022/06/05 11:14:23;;;;;;;;;13.33;11.33;;;;;24.99;51.97;100973.16;4998865;28;45450;-78
2022/06/05 11:17:12;;;;;;;;;12.33;12.33;;;;;25.04;51.84;100982.34;5002770;28;45299;-74
2022/06/05 11:19:46;;;;;;;;;15.67;14.67;;;;;25.14;52.56;101009.78;5011098;28;45525;-75
2022/06/05 11:22:16;;;;;;;;;15.67;14.00;;;;;25.06;51.88;101012.84;5019517;28;46103;-75
2022/06/05 11:25:30;;;;;;;;;14.33;14.33;;;;;24.99;52.05;101001.22;5003748;28;45503;-77
2022/06/05 11:28:08;;;;;;;;;13.67;13.67;;;;;24.95;51.86;100988.31;4995249;28;45453;-77
2022/06/05 11:31:10;;;;;;;;;12.67;12.67;;;;;25.03;51.83;101005.16;4982613;28;45436;-74
2022/06/05 11:34:06;;;;;;;;;15.00;12.67;;;;;24.20;51.50;100860.97;4999015;28;45958;-74
2022/06/05 11:36:53;;;;;;;;;10.67;10.67;;;;;24.23;51.58;100874.13;4993283;28;45421;-76
2022/06/05 11:39:29;;;;;;;;;14.00;11.33;;;;;24.99;51.89;101014.81;5004330;28;45677;-76
2022/06/05 11:42:13;;;;;;;;;11.00;11.00;;;;;24.92;52.20;101014.06;4988502;28;45686;-79
2022/06/05 11:44:55;;;;;;;;;14.33;14.33;;;;;24.15;51.97;100917.91;4997954;28;48541;-77
2022/06/05 11:47:34;;;;;;;;;19.00;16.33;;;;;24.69;52.40;101019.44;5010698;28;45426;-76
2022/06/05 11:50:09;;;;;;;;;14.33;13.33;;;;;24.61;52.13;101022.47;4999965;28;45186;-76
2022/06/05 11:52:52;;;;;;;;;13.00;13.00;;;;;24.33;52.84;101002.13;5006486;28;45455;-76
2022/06/05 11:55:35;;;;;;;;;15.67;15.67;;;;;24.39;52.54;101033.81;5003949;28;47712;-78
2022/06/05 11:58:20;;;;;;;;;12.33;12.33;;;;;24.34;53.31;101047.28;5004443;28;45276;-75
2022/06/05 12:01:14;;;;;;;;;15.00;14.33;;;;;24.33;53.18;101045.59;5002151;28;45444;-76